Seneimaru — JG5357 — position and weather

sailwx.info

Track history (hours):
 
Tides and Currents Weather Stations Pressure Air Temp Water Temp Dewpoint Dewpoint Depression Visibility Wind Speed Wind Dir Waves Ship Positions

Seneimaru

Last reported at 2015-Jan-31 05:17 UTC. Time now 2015-Jan-31 05:37 UTC.
Position N 34°51' E 139°47'.

Length 72 m; draft 5.9 m.

Type: Cargo ship. MMSI: 431100477.

Date/timePositionNaut miles runAvg speedWind from/ knotsBaromVisibWave heightAir tempDewpointWater temp
2015-Jan-31 05:17N 34°51' E 139°47'811.4
2015-Jan-31 04:33N 34°59' E 139°43'1212.3
2015-Jan-31 03:33N 35°11' E 139°46'1111.5
2015-Jan-31 02:33N 35°22' E 139°42'8 8.3
2015-Jan-31 01:33N 35°30' E 139°45'2 1.5
2015-Jan-31 00:31N 35°30' E 139°43'0 0.0
2015-Jan-30 23:31N 35°30' E 139°43'0 0.0
2015-Jan-30 22:31N 35°30' E 139°43'0 0.0
2015-Jan-30 21:31N 35°30' E 139°43'1 1.4
2015-Jan-30 20:33N 35°29' E 139°42'5 5.2
2015-Jan-30 19:31N 35°24' E 139°44'0 0.0
2015-Jan-30 18:31N 35°24' E 139°44'0 0.0
2015-Jan-30 17:31N 35°24' E 139°44'8 8.3
2015-Jan-30 16:33N 35°16' E 139°46'1211.9
2015-Jan-30 15:33N 35°04' E 139°45'1111.2
2015-Jan-30 14:33N 34°53' E 139°46'1 0.0
2015-Jan-29 05:19N 34°53' E 139°46'811.0
2015-Jan-29 04:33N 35°01' E 139°44'1212.2
2015-Jan-29 03:33N 35°13' E 139°47'1111.3
2015-Jan-29 02:33N 35°24' E 139°43'5 5.5
2015-Jan-29 01:33N 35°30' E 139°43'1 0.6
2015-Jan-29 00:33N 35°30' E 139°43'0 0.0
2015-Jan-28 23:33N 35°30' E 139°43'0 0.0
2015-Jan-28 22:33N 35°30' E 139°43'0 0.0
2015-Jan-28 21:33N 35°30' E 139°43'3 2.7
2015-Jan-28 20:33N 35°27' E 139°43'4 4.2
2015-Jan-28 19:31N 35°23' E 139°45'0 0.0
2015-Jan-28 18:31N 35°23' E 139°45'2 2.3
2015-Jan-28 17:34N 35°21' E 139°44'1110.6
2015-Jan-28 16:33N 35°11' E 139°47'1211.6
2015-Jan-28 15:33N 34°60' E 139°44'8 0.2
2015-Jan-27 04:23N 34°52' E 139°46'810.1
2015-Jan-27 03:33N 35°00' E 139°43'1111.2
2015-Jan-27 02:33N 35°11' E 139°46'1111.4
2015-Jan-27 01:33N 35°22' E 139°42'8 7.9
2015-Jan-27 00:34N 35°30' E 139°45'1 1.4
2015-Jan-26 23:31N 35°30' E 139°43'0 0.0
2015-Jan-26 22:31N 35°30' E 139°43'0 0.0
2015-Jan-26 21:31N 35°30' E 139°43'0 0.0
2015-Jan-26 20:31N 35°30' E 139°43'0 0.0
2015-Jan-26 19:31N 35°30' E 139°43'0 0.0
2015-Jan-26 18:31N 35°30' E 139°43'0 0.0
2015-Jan-26 17:31N 35°30' E 139°43'0 0.0
2015-Jan-26 16:28N 35°30' E 139°43'0 0.0
2015-Jan-26 15:31N 35°30' E 139°43'0 0.0
2015-Jan-26 14:31N 35°30' E 139°43'0 0.0
2015-Jan-26 13:31N 35°30' E 139°43'0 0.0
2015-Jan-26 12:31N 35°30' E 139°43'0 0.0
2015-Jan-26 11:31N 35°30' E 139°43'0 0.0
2015-Jan-26 10:31N 35°30' E 139°43'0 0.0
2015-Jan-26 09:28N 35°30' E 139°43'0 0.0
2015-Jan-26 08:31N 35°30' E 139°43'0 0.0
2015-Jan-26 07:31N 35°30' E 139°43'0 0.0
2015-Jan-26 06:31N 35°30' E 139°43'0 0.0
2015-Jan-26 05:31N 35°30' E 139°43'0 0.0
2015-Jan-26 04:31N 35°30' E 139°43'0 0.0
2015-Jan-26 03:31N 35°30' E 139°43'0 0.0
2015-Jan-26 02:31N 35°30' E 139°43'0 0.0
2015-Jan-26 01:31N 35°30' E 139°43'0 0.0
2015-Jan-26 00:31N 35°30' E 139°43'0 0.0
2015-Jan-25 23:31N 35°30' E 139°43'0 0.0
2015-Jan-25 22:31N 35°30' E 139°43'2 1.8
2015-Jan-25 21:34N 35°29' E 139°42'5 5.1
2015-Jan-25 20:31N 35°24' E 139°45'0 0.0
2015-Jan-25 19:31N 35°24' E 139°45'0 0.0
2015-Jan-25 18:28N 35°24' E 139°45'0 0.0
2015-Jan-25 17:31N 35°24' E 139°45'4 4.5
2015-Jan-25 16:33N 35°19' E 139°43'1110.6
2015-Jan-25 15:33N 35°09' E 139°46'1212.0
2015-Jan-25 14:33N 34°57' E 139°44'4 0.1
2015-Jan-24 05:31N 34°54' E 139°45'1111.0
2015-Jan-24 04:33N 35°04' E 139°44'1212.0
2015-Jan-24 03:33N 35°16' E 139°46'1010.5
2015-Jan-24 02:33N 35°27' E 139°45'4 3.9
2015-Jan-24 01:31N 35°30' E 139°43'0 0.0
2015-Jan-24 00:33N 35°30' E 139°43'0 0.0
2015-Jan-23 23:34N 35°30' E 139°43'0 0.0
2015-Jan-23 22:33N 35°30' E 139°43'0 0.2
2015-Jan-23 21:34N 35°30' E 139°43'6 6.5
2015-Jan-23 20:33N 35°24' E 139°46'10 9.8
2015-Jan-23 19:34N 35°14' E 139°47'10 9.8
2015-Jan-23 18:32N 35°04' E 139°45'10 9.2
2015-Jan-23 17:30N 34°55' E 139°45'2 0.1
2015-Jan-22 06:28N 34°56' E 139°44'1011.0
2015-Jan-22 05:33N 35°06' E 139°45'1111.2
2015-Jan-22 04:33N 35°18' E 139°45'1010.0
2015-Jan-22 03:34N 35°27' E 139°46'4 3.9
2015-Jan-22 02:33N 35°30' E 139°43'0 0.0
2015-Jan-22 01:33N 35°30' E 139°43'0 0.0
2015-Jan-22 00:33N 35°30' E 139°43'0 0.0
2015-Jan-21 23:33N 35°30' E 139°43'0 0.0
2015-Jan-21 22:48N 35°30' E 139°43'0 0.0
2015-Jan-21 22:42N 35°30' E 139°43'0 0.0
2015-Jan-21 22:30N 35°30' E 139°43'0 0.0
2015-Jan-21 21:33N 35°30' E 139°43'1 1.0
2015-Jan-21 20:33N 35°29' E 139°43'6 5.5
2015-Jan-21 19:31N 35°24' E 139°45'0 0.0
2015-Jan-21 18:31N 35°24' E 139°45'0 0.0
2015-Jan-21 17:31N 35°24' E 139°45'0 0.1
2015-Jan-21 16:31N 35°24' E 139°45'0 0.0
2015-Jan-21 15:31N 35°24' E 139°45'3 3.6
2015-Jan-21 14:33N 35°20' E 139°43'1110.7
2015-Jan-21 13:34N 35°10' E 139°47'1211.4
2015-Jan-21 12:32N 34°59' E 139°43'  
Track history (hours):
 
Tides and Currents Weather Stations Pressure Air Temp Water Temp Dewpoint Dewpoint Depression Visibility Wind Speed Wind Dir Waves Ship Positions

Seneimaru

Last reported at 2015-Jan-31 05:17 UTC. Time now 2015-Jan-31 05:37 UTC.
Position N 34°51' E 139°47'.

Length 72 m; draft 5.9 m.

Type: Cargo ship. MMSI: 431100477.

Date/timePositionNaut miles runAvg speedWind from/ knotsBaromVisibWave heightAir tempDewpointWater temp
2015-Jan-31 05:17N 34°51' E 139°47'811.4
2015-Jan-31 04:33N 34°59' E 139°43'1212.3
2015-Jan-31 03:33N 35°11' E 139°46'1111.5
2015-Jan-31 02:33N 35°22' E 139°42'8 8.3
2015-Jan-31 01:33N 35°30' E 139°45'2 1.5
2015-Jan-31 00:31N 35°30' E 139°43'0 0.0
2015-Jan-30 23:31N 35°30' E 139°43'0 0.0
2015-Jan-30 22:31N 35°30' E 139°43'0 0.0
2015-Jan-30 21:31N 35°30' E 139°43'1 1.4
2015-Jan-30 20:33N 35°29' E 139°42'5 5.2
2015-Jan-30 19:31N 35°24' E 139°44'0 0.0
2015-Jan-30 18:31N 35°24' E 139°44'0 0.0
2015-Jan-30 17:31N 35°24' E 139°44'8 8.3
2015-Jan-30 16:33N 35°16' E 139°46'1211.9
2015-Jan-30 15:33N 35°04' E 139°45'1111.2
2015-Jan-30 14:33N 34°53' E 139°46'1 0.0
2015-Jan-29 05:19N 34°53' E 139°46'811.0
2015-Jan-29 04:33N 35°01' E 139°44'1212.2
2015-Jan-29 03:33N 35°13' E 139°47'1111.3
2015-Jan-29 02:33N 35°24' E 139°43'5 5.5
2015-Jan-29 01:33N 35°30' E 139°43'1 0.6
2015-Jan-29 00:33N 35°30' E 139°43'0 0.0
2015-Jan-28 23:33N 35°30' E 139°43'0 0.0
2015-Jan-28 22:33N 35°30' E 139°43'0 0.0
2015-Jan-28 21:33N 35°30' E 139°43'3 2.7
2015-Jan-28 20:33N 35°27' E 139°43'4 4.2
2015-Jan-28 19:31N 35°23' E 139°45'0 0.0
2015-Jan-28 18:31N 35°23' E 139°45'2 2.3
2015-Jan-28 17:34N 35°21' E 139°44'1110.6
2015-Jan-28 16:33N 35°11' E 139°47'1211.6
2015-Jan-28 15:33N 34°60' E 139°44'8 0.2
2015-Jan-27 04:23N 34°52' E 139°46'810.1
2015-Jan-27 03:33N 35°00' E 139°43'1111.2
2015-Jan-27 02:33N 35°11' E 139°46'1111.4
2015-Jan-27 01:33N 35°22' E 139°42'8 7.9
2015-Jan-27 00:34N 35°30' E 139°45'1 1.4
2015-Jan-26 23:31N 35°30' E 139°43'0 0.0
2015-Jan-26 22:31N 35°30' E 139°43'0 0.0
2015-Jan-26 21:31N 35°30' E 139°43'0 0.0
2015-Jan-26 20:31N 35°30' E 139°43'0 0.0
2015-Jan-26 19:31N 35°30' E 139°43'0 0.0
2015-Jan-26 18:31N 35°30' E 139°43'0 0.0
2015-Jan-26 17:31N 35°30' E 139°43'0 0.0
2015-Jan-26 16:28N 35°30' E 139°43'0 0.0
2015-Jan-26 15:31N 35°30' E 139°43'0 0.0
2015-Jan-26 14:31N 35°30' E 139°43'0 0.0
2015-Jan-26 13:31N 35°30' E 139°43'0 0.0
2015-Jan-26 12:31N 35°30' E 139°43'0 0.0
2015-Jan-26 11:31N 35°30' E 139°43'0 0.0
2015-Jan-26 10:31N 35°30' E 139°43'0 0.0
2015-Jan-26 09:28N 35°30' E 139°43'0 0.0
2015-Jan-26 08:31N 35°30' E 139°43'0 0.0
2015-Jan-26 07:31N 35°30' E 139°43'0 0.0
2015-Jan-26 06:31N 35°30' E 139°43'0 0.0
2015-Jan-26 05:31N 35°30' E 139°43'0 0.0
2015-Jan-26 04:31N 35°30' E 139°43'0 0.0
2015-Jan-26 03:31N 35°30' E 139°43'0 0.0
2015-Jan-26 02:31N 35°30' E 139°43'0 0.0
2015-Jan-26 01:31N 35°30' E 139°43'0 0.0
2015-Jan-26 00:31N 35°30' E 139°43'0 0.0
2015-Jan-25 23:31N 35°30' E 139°43'0 0.0
2015-Jan-25 22:31N 35°30' E 139°43'2 1.8
2015-Jan-25 21:34N 35°29' E 139°42'5 5.1
2015-Jan-25 20:31N 35°24' E 139°45'0 0.0
2015-Jan-25 19:31N 35°24' E 139°45'0 0.0
2015-Jan-25 18:28N 35°24' E 139°45'0 0.0
2015-Jan-25 17:31N 35°24' E 139°45'4 4.5
2015-Jan-25 16:33N 35°19' E 139°43'1110.6
2015-Jan-25 15:33N 35°09' E 139°46'1212.0
2015-Jan-25 14:33N 34°57' E 139°44'4 0.1
2015-Jan-24 05:31N 34°54' E 139°45'1111.0
2015-Jan-24 04:33N 35°04' E 139°44'1212.0
2015-Jan-24 03:33N 35°16' E 139°46'1010.5
2015-Jan-24 02:33N 35°27' E 139°45'4 3.9
2015-Jan-24 01:31N 35°30' E 139°43'0 0.0
2015-Jan-24 00:33N 35°30' E 139°43'0 0.0
2015-Jan-23 23:34N 35°30' E 139°43'0 0.0
2015-Jan-23 22:33N 35°30' E 139°43'0 0.2
2015-Jan-23 21:34N 35°30' E 139°43'6 6.5
2015-Jan-23 20:33N 35°24' E 139°46'10 9.8
2015-Jan-23 19:34N 35°14' E 139°47'10 9.8
2015-Jan-23 18:32N 35°04' E 139°45'10 9.2
2015-Jan-23 17:30N 34°55' E 139°45'2 0.1
2015-Jan-22 06:28N 34°56' E 139°44'1011.0
2015-Jan-22 05:33N 35°06' E 139°45'1111.2
2015-Jan-22 04:33N 35°18' E 139°45'1010.0
2015-Jan-22 03:34N 35°27' E 139°46'4 3.9
2015-Jan-22 02:33N 35°30' E 139°43'0 0.0
2015-Jan-22 01:33N 35°30' E 139°43'0 0.0
2015-Jan-22 00:33N 35°30' E 139°43'0 0.0
2015-Jan-21 23:33N 35°30' E 139°43'0 0.0
2015-Jan-21 22:48N 35°30' E 139°43'0 0.0
2015-Jan-21 22:42N 35°30' E 139°43'0 0.0
2015-Jan-21 22:30N 35°30' E 139°43'0 0.0
2015-Jan-21 21:33N 35°30' E 139°43'1 1.0
2015-Jan-21 20:33N 35°29' E 139°43'6 5.5
2015-Jan-21 19:31N 35°24' E 139°45'0 0.0
2015-Jan-21 18:31N 35°24' E 139°45'0 0.0
2015-Jan-21 17:31N 35°24' E 139°45'0 0.1
2015-Jan-21 16:31N 35°24' E 139°45'0 0.0
2015-Jan-21 15:31N 35°24' E 139°45'3 3.6
2015-Jan-21 14:33N 35°20' E 139°43'1110.7
2015-Jan-21 13:34N 35°10' E 139°47'1211.4
2015-Jan-21 12:32N 34°59' E 139°43'  

Dump ship's entire track history